sensor_id;sensor_type;location;lat;lon;timestamp;P1;durP1;ratioP1;P2;durP2;ratioP2
3916;SDS011;1973;50.518;7.318;2022-08-19T00:01:33;21.17;;;19.27;;
3916;SDS011;1973;50.518;7.318;2022-08-19T00:04:04;21.00;;;19.20;;
3916;SDS011;1973;50.518;7.318;2022-08-19T00:06:35;19.50;;;17.90;;
3916;SDS011;1973;50.518;7.318;2022-08-19T00:09:04;20.57;;;18.67;;
3916;SDS011;1973;50.518;7.318;2022-08-19T00:11:33;19.67;;;17.87;;
3916;SDS011;1973;50.518;7.318;2022-08-19T00:14:04;20.33;;;18.43;;
3916;SDS011;1973;50.518;7.318;2022-08-19T00:16:32;19.70;;;18.00;;
3916;SDS011;1973;50.518;7.318;2022-08-19T00:18:58;19.80;;;18.10;;
3916;SDS011;1973;50.518;7.318;2022-08-19T00:21:25;21.17;;;18.73;;
3916;SDS011;1973;50.518;7.318;2022-08-19T00:23:53;20.57;;;18.77;;
3916;SDS011;1973;50.518;7.318;2022-08-19T00:26:20;19.23;;;17.63;;
3916;SDS011;1973;50.518;7.318;2022-08-19T00:28:47;19.10;;;17.40;;
3916;SDS011;1973;50.518;7.318;2022-08-19T00:31:13;19.63;;;17.87;;
3916;SDS011;1973;50.518;7.318;2022-08-19T00:33:42;20.03;;;18.10;;
3916;SDS011;1973;50.518;7.318;2022-08-19T00:36:09;18.07;;;16.57;;
3916;SDS011;1973;50.518;7.318;2022-08-19T00:38:37;20.50;;;18.70;;
3916;SDS011;1973;50.518;7.318;2022-08-19T00:41:07;20.60;;;18.90;;
3916;SDS011;1973;50.518;7.318;2022-08-19T00:43:34;18.70;;;16.90;;
3916;SDS011;1973;50.518;7.318;2022-08-19T00:46:00;17.87;;;16.00;;
3916;SDS011;1973;50.518;7.318;2022-08-19T00:48:31;20.23;;;18.43;;
3916;SDS011;1973;50.518;7.318;2022-08-19T00:50:59;19.33;;;17.63;;
3916;SDS011;1973;50.518;7.318;2022-08-19T00:53:26;18.80;;;17.20;;
3916;SDS011;1973;50.518;7.318;2022-08-19T00:55:55;19.83;;;18.03;;
3916;SDS011;1973;50.518;7.318;2022-08-19T00:58:24;18.80;;;17.30;;
3916;SDS011;1973;50.518;7.318;2022-08-19T01:00:55;18.70;;;17.00;;
3916;SDS011;1973;50.518;7.318;2022-08-19T01:03:21;18.33;;;16.73;;
3916;SDS011;1973;50.518;7.318;2022-08-19T01:05:48;19.10;;;17.10;;
3916;SDS011;1973;50.518;7.318;2022-08-19T01:08:17;19.73;;;17.87;;
3916;SDS011;1973;50.518;7.318;2022-08-19T01:10:47;18.77;;;17.07;;
3916;SDS011;1973;50.518;7.318;2022-08-19T01:13:17;19.47;;;17.10;;
3916;SDS011;1973;50.518;7.318;2022-08-19T01:15:55;17.53;;;15.97;;
3916;SDS011;1973;50.518;7.318;2022-08-19T01:18:24;19.63;;;17.93;;
3916;SDS011;1973;50.518;7.318;2022-08-19T01:20:53;18.50;;;16.77;;
3916;SDS011;1973;50.518;7.318;2022-08-19T01:23:22;18.33;;;16.73;;
3916;SDS011;1973;50.518;7.318;2022-08-19T01:26:10;17.73;;;15.90;;
3916;SDS011;1973;50.518;7.318;2022-08-19T01:28:45;16.37;;;14.97;;
3916;SDS011;1973;50.518;7.318;2022-08-19T01:31:21;17.37;;;15.87;;
3916;SDS011;1973;50.518;7.318;2022-08-19T01:33:54;19.03;;;17.23;;
3916;SDS011;1973;50.518;7.318;2022-08-19T01:39:22;18.13;;;16.63;;
3916;SDS011;1973;50.518;7.318;2022-08-19T01:41:51;16.40;;;15.00;;
3916;SDS011;1973;50.518;7.318;2022-08-19T01:44:20;17.90;;;16.17;;
3916;SDS011;1973;50.518;7.318;2022-08-19T01:46:50;16.53;;;15.03;;
3916;SDS011;1973;50.518;7.318;2022-08-19T01:49:18;18.07;;;16.43;;
3916;SDS011;1973;50.518;7.318;2022-08-19T01:51:47;16.60;;;15.20;;
3916;SDS011;1973;50.518;7.318;2022-08-19T01:54:16;16.20;;;14.67;;
3916;SDS011;1973;50.518;7.318;2022-08-19T01:56:54;15.73;;;14.27;;
3916;SDS011;1973;50.518;7.318;2022-08-19T01:59:23;16.63;;;15.00;;
3916;SDS011;1973;50.518;7.318;2022-08-19T02:01:50;18.70;;;15.83;;
3916;SDS011;1973;50.518;7.318;2022-08-19T02:04:17;16.83;;;15.33;;
3916;SDS011;1973;50.518;7.318;2022-08-19T02:06:43;16.13;;;14.73;;
3916;SDS011;1973;50.518;7.318;2022-08-19T02:09:10;17.20;;;15.67;;
3916;SDS011;1973;50.518;7.318;2022-08-19T02:11:36;15.33;;;14.03;;
3916;SDS011;1973;50.518;7.318;2022-08-19T02:14:04;15.13;;;13.83;;
3916;SDS011;1973;50.518;7.318;2022-08-19T02:16:33;16.00;;;14.57;;
3916;SDS011;1973;50.518;7.318;2022-08-19T02:19:01;16.00;;;14.33;;
3916;SDS011;1973;50.518;7.318;2022-08-19T02:21:28;14.27;;;12.90;;
3916;SDS011;1973;50.518;7.318;2022-08-19T02:23:55;15.70;;;14.30;;
3916;SDS011;1973;50.518;7.318;2022-08-19T02:26:23;15.87;;;14.53;;
3916;SDS011;1973;50.518;7.318;2022-08-19T02:28:49;16.03;;;14.33;;
3916;SDS011;1973;50.518;7.318;2022-08-19T02:31:17;16.23;;;14.77;;
3916;SDS011;1973;50.518;7.318;2022-08-19T02:33:46;14.83;;;13.43;;
3916;SDS011;1973;50.518;7.318;2022-08-19T02:36:14;14.83;;;13.53;;
3916;SDS011;1973;50.518;7.318;2022-08-19T02:38:45;15.00;;;13.77;;
3916;SDS011;1973;50.518;7.318;2022-08-19T02:41:32;15.67;;;14.27;;
3916;SDS011;1973;50.518;7.318;2022-08-19T02:43:59;15.53;;;14.20;;
3916;SDS011;1973;50.518;7.318;2022-08-19T02:46:48;14.70;;;13.40;;
3916;SDS011;1973;50.518;7.318;2022-08-19T02:49:17;16.27;;;14.70;;
3916;SDS011;1973;50.518;7.318;2022-08-19T02:51:45;16.20;;;14.80;;
3916;SDS011;1973;50.518;7.318;2022-08-19T02:54:12;16.80;;;15.40;;
3916;SDS011;1973;50.518;7.318;2022-08-19T02:56:40;16.03;;;14.63;;
3916;SDS011;1973;50.518;7.318;2022-08-19T02:59:08;15.47;;;13.97;;
3916;SDS011;1973;50.518;7.318;2022-08-19T03:01:36;14.10;;;12.90;;
3916;SDS011;1973;50.518;7.318;2022-08-19T03:04:07;16.50;;;14.70;;
3916;SDS011;1973;50.518;7.318;2022-08-19T03:06:36;14.97;;;13.50;;
3916;SDS011;1973;50.518;7.318;2022-08-19T03:09:03;14.03;;;12.73;;
3916;SDS011;1973;50.518;7.318;2022-08-19T03:11:31;16.77;;;14.90;;
3916;SDS011;1973;50.518;7.318;2022-08-19T03:13:58;14.43;;;13.13;;
3916;SDS011;1973;50.518;7.318;2022-08-19T03:16:27;15.43;;;14.13;;
3916;SDS011;1973;50.518;7.318;2022-08-19T03:18:59;14.60;;;13.30;;
3916;SDS011;1973;50.518;7.318;2022-08-19T03:21:27;15.53;;;14.10;;
3916;SDS011;1973;50.518;7.318;2022-08-19T03:23:57;15.70;;;14.27;;
3916;SDS011;1973;50.518;7.318;2022-08-19T03:26:26;14.77;;;13.47;;
3916;SDS011;1973;50.518;7.318;2022-08-19T03:28:54;15.40;;;14.00;;
3916;SDS011;1973;50.518;7.318;2022-08-19T03:31:24;13.53;;;12.40;;
3916;SDS011;1973;50.518;7.318;2022-08-19T03:34:32;14.67;;;13.27;;
3916;SDS011;1973;50.518;7.318;2022-08-19T03:37:02;16.73;;;15.17;;
3916;SDS011;1973;50.518;7.318;2022-08-19T03:39:31;15.30;;;14.00;;
3916;SDS011;1973;50.518;7.318;2022-08-19T03:41:58;14.70;;;13.40;;
3916;SDS011;1973;50.518;7.318;2022-08-19T03:44:48;14.80;;;13.40;;
3916;SDS011;1973;50.518;7.318;2022-08-19T03:47:14;15.63;;;14.23;;
3916;SDS011;1973;50.518;7.318;2022-08-19T03:49:42;14.50;;;13.20;;
3916;SDS011;1973;50.518;7.318;2022-08-19T03:52:09;21.90;;;13.60;;
3916;SDS011;1973;50.518;7.318;2022-08-19T03:54:36;15.47;;;14.07;;
3916;SDS011;1973;50.518;7.318;2022-08-19T03:57:04;15.20;;;13.90;;
3916;SDS011;1973;50.518;7.318;2022-08-19T03:59:32;15.03;;;13.70;;
3916;SDS011;1973;50.518;7.318;2022-08-19T04:02:02;15.17;;;13.80;;
3916;SDS011;1973;50.518;7.318;2022-08-19T04:04:34;14.77;;;13.27;;
3916;SDS011;1973;50.518;7.318;2022-08-19T04:07:02;15.20;;;13.93;;
3916;SDS011;1973;50.518;7.318;2022-08-19T04:09:29;14.17;;;12.97;;
3916;SDS011;1973;50.518;7.318;2022-08-19T04:11:56;13.83;;;12.63;;
3916;SDS011;1973;50.518;7.318;2022-08-19T04:14:24;15.03;;;13.63;;
3916;SDS011;1973;50.518;7.318;2022-08-19T04:16:54;14.80;;;13.40;;
3916;SDS011;1973;50.518;7.318;2022-08-19T04:19:21;14.87;;;13.63;;
3916;SDS011;1973;50.518;7.318;2022-08-19T04:21:50;16.30;;;14.87;;
3916;SDS011;1973;50.518;7.318;2022-08-19T04:24:19;14.50;;;13.20;;
3916;SDS011;1973;50.518;7.318;2022-08-19T04:26:46;14.43;;;13.23;;
3916;SDS011;1973;50.518;7.318;2022-08-19T04:29:14;14.43;;;13.23;;
3916;SDS011;1973;50.518;7.318;2022-08-19T04:31:48;12.60;;;11.50;;
3916;SDS011;1973;50.518;7.318;2022-08-19T04:34:16;14.97;;;13.47;;
3916;SDS011;1973;50.518;7.318;2022-08-19T04:36:48;14.20;;;13.00;;
3916;SDS011;1973;50.518;7.318;2022-08-19T04:39:19;14.10;;;12.90;;
3916;SDS011;1973;50.518;7.318;2022-08-19T04:41:47;15.40;;;13.87;;
3916;SDS011;1973;50.518;7.318;2022-08-19T04:44:33;15.53;;;14.17;;
3916;SDS011;1973;50.518;7.318;2022-08-19T04:47:10;14.87;;;13.47;;
3916;SDS011;1973;50.518;7.318;2022-08-19T04:49:36;15.07;;;13.50;;
3916;SDS011;1973;50.518;7.318;2022-08-19T04:52:03;16.60;;;14.87;;
3916;SDS011;1973;50.518;7.318;2022-08-19T04:54:30;15.20;;;13.80;;
3916;SDS011;1973;50.518;7.318;2022-08-19T04:57:04;15.13;;;13.93;;
3916;SDS011;1973;50.518;7.318;2022-08-19T04:59:35;16.20;;;14.70;;
3916;SDS011;1973;50.518;7.318;2022-08-19T05:02:03;15.60;;;14.13;;
3916;SDS011;1973;50.518;7.318;2022-08-19T05:04:30;14.67;;;13.27;;
3916;SDS011;1973;50.518;7.318;2022-08-19T05:06:58;14.30;;;13.10;;
3916;SDS011;1973;50.518;7.318;2022-08-19T05:09:26;14.63;;;13.33;;
3916;SDS011;1973;50.518;7.318;2022-08-19T05:12:13;15.60;;;14.17;;
3916;SDS011;1973;50.518;7.318;2022-08-19T05:14:39;15.80;;;14.20;;
3916;SDS011;1973;50.518;7.318;2022-08-19T05:17:06;16.07;;;14.53;;
3916;SDS011;1973;50.518;7.318;2022-08-19T05:19:52;14.70;;;13.37;;
3916;SDS011;1973;50.518;7.318;2022-08-19T05:22:38;15.50;;;13.93;;
3916;SDS011;1973;50.518;7.318;2022-08-19T05:25:05;13.70;;;12.60;;
3916;SDS011;1973;50.518;7.318;2022-08-19T05:27:38;14.47;;;13.17;;
3916;SDS011;1973;50.518;7.318;2022-08-19T05:30:05;15.70;;;14.20;;
3916;SDS011;1973;50.518;7.318;2022-08-19T05:32:32;15.37;;;13.93;;
3916;SDS011;1973;50.518;7.318;2022-08-19T05:34:59;15.50;;;14.10;;
3916;SDS011;1973;50.518;7.318;2022-08-19T05:37:25;15.57;;;13.93;;
3916;SDS011;1973;50.518;7.318;2022-08-19T05:39:53;15.90;;;14.40;;
3916;SDS011;1973;50.518;7.318;2022-08-19T05:42:21;15.37;;;14.03;;
3916;SDS011;1973;50.518;7.318;2022-08-19T05:44:49;17.00;;;15.40;;
3916;SDS011;1973;50.518;7.318;2022-08-19T05:47:16;15.50;;;14.20;;
3916;SDS011;1973;50.518;7.318;2022-08-19T05:49:45;15.10;;;13.80;;
3916;SDS011;1973;50.518;7.318;2022-08-19T05:52:13;15.73;;;14.30;;
3916;SDS011;1973;50.518;7.318;2022-08-19T05:54:43;16.90;;;15.17;;
3916;SDS011;1973;50.518;7.318;2022-08-19T05:57:13;16.30;;;14.70;;
3916;SDS011;1973;50.518;7.318;2022-08-19T05:59:40;15.70;;;14.37;;
3916;SDS011;1973;50.518;7.318;2022-08-19T06:02:08;16.20;;;14.70;;
3916;SDS011;1973;50.518;7.318;2022-08-19T06:04:34;15.87;;;14.50;;
3916;SDS011;1973;50.518;7.318;2022-08-19T06:07:01;16.43;;;15.13;;
3916;SDS011;1973;50.518;7.318;2022-08-19T06:09:38;17.67;;;15.93;;
3916;SDS011;1973;50.518;7.318;2022-08-19T06:12:06;17.77;;;16.07;;
3916;SDS011;1973;50.518;7.318;2022-08-19T06:14:33;18.67;;;16.97;;
3916;SDS011;1973;50.518;7.318;2022-08-19T06:17:06;19.13;;;17.13;;
3916;SDS011;1973;50.518;7.318;2022-08-19T06:19:33;19.53;;;17.73;;
3916;SDS011;1973;50.518;7.318;2022-08-19T06:22:06;24.33;;;22.03;;
3916;SDS011;1973;50.518;7.318;2022-08-19T06:24:33;21.17;;;19.20;;
3916;SDS011;1973;50.518;7.318;2022-08-19T06:27:01;21.67;;;18.97;;
3916;SDS011;1973;50.518;7.318;2022-08-19T06:29:31;22.37;;;20.20;;
3916;SDS011;1973;50.518;7.318;2022-08-19T06:31:59;22.10;;;20.20;;
3916;SDS011;1973;50.518;7.318;2022-08-19T06:34:27;23.53;;;21.20;;
3916;SDS011;1973;50.518;7.318;2022-08-19T06:36:56;24.40;;;22.20;;
3916;SDS011;1973;50.518;7.318;2022-08-19T06:39:29;25.60;;;22.90;;
3916;SDS011;1973;50.518;7.318;2022-08-19T06:41:58;25.37;;;22.97;;
3916;SDS011;1973;50.518;7.318;2022-08-19T06:44:28;26.37;;;23.97;;
3916;SDS011;1973;50.518;7.318;2022-08-19T06:46:58;26.03;;;23.63;;
3916;SDS011;1973;50.518;7.318;2022-08-19T06:49:25;27.10;;;24.40;;
3916;SDS011;1973;50.518;7.318;2022-08-19T06:51:53;28.10;;;25.10;;
3916;SDS011;1973;50.518;7.318;2022-08-19T06:54:22;28.30;;;25.30;;
3916;SDS011;1973;50.518;7.318;2022-08-19T06:56:56;28.53;;;25.77;;
3916;SDS011;1973;50.518;7.318;2022-08-19T06:59:28;28.30;;;25.27;;
3916;SDS011;1973;50.518;7.318;2022-08-19T07:01:58;30.47;;;27.47;;
3916;SDS011;1973;50.518;7.318;2022-08-19T07:04:28;28.77;;;25.77;;
3916;SDS011;1973;50.518;7.318;2022-08-19T07:07:04;29.03;;;26.00;;
3916;SDS011;1973;50.518;7.318;2022-08-19T07:09:45;28.67;;;25.87;;
3916;SDS011;1973;50.518;7.318;2022-08-19T07:12:27;30.27;;;27.17;;
3916;SDS011;1973;50.518;7.318;2022-08-19T07:14:56;31.40;;;28.20;;
3916;SDS011;1973;50.518;7.318;2022-08-19T07:17:23;31.17;;;27.37;;
3916;SDS011;1973;50.518;7.318;2022-08-19T07:19:50;29.57;;;26.77;;
3916;SDS011;1973;50.518;7.318;2022-08-19T07:22:20;30.17;;;27.00;;
3916;SDS011;1973;50.518;7.318;2022-08-19T07:24:50;31.07;;;27.87;;
3916;SDS011;1973;50.518;7.318;2022-08-19T07:27:17;27.77;;;24.97;;
3916;SDS011;1973;50.518;7.318;2022-08-19T07:29:51;31.60;;;28.33;;
3916;SDS011;1973;50.518;7.318;2022-08-19T07:32:24;32.30;;;28.57;;
3916;SDS011;1973;50.518;7.318;2022-08-19T07:34:55;31.10;;;28.00;;
3916;SDS011;1973;50.518;7.318;2022-08-19T07:37:22;37.90;;;33.90;;
3916;SDS011;1973;50.518;7.318;2022-08-19T07:39:58;32.97;;;29.67;;
3916;SDS011;1973;50.518;7.318;2022-08-19T07:42:24;34.67;;;30.97;;
3916;SDS011;1973;50.518;7.318;2022-08-19T07:44:51;30.87;;;27.87;;
3916;SDS011;1973;50.518;7.318;2022-08-19T07:47:18;31.67;;;28.57;;
3916;SDS011;1973;50.518;7.318;2022-08-19T07:50:05;30.07;;;27.00;;
3916;SDS011;1973;50.518;7.318;2022-08-19T07:52:34;31.37;;;27.57;;
3916;SDS011;1973;50.518;7.318;2022-08-19T07:55:02;30.63;;;27.33;;
3916;SDS011;1973;50.518;7.318;2022-08-19T07:57:30;31.50;;;28.23;;
3916;SDS011;1973;50.518;7.318;2022-08-19T07:59:56;26.90;;;23.97;;
3916;SDS011;1973;50.518;7.318;2022-08-19T08:02:23;30.50;;;27.20;;
3916;SDS011;1973;50.518;7.318;2022-08-19T08:04:49;28.00;;;25.20;;
3916;SDS011;1973;50.518;7.318;2022-08-19T08:07:34;28.77;;;25.73;;
3916;SDS011;1973;50.518;7.318;2022-08-19T08:10:19;35.13;;;25.00;;
3916;SDS011;1973;50.518;7.318;2022-08-19T08:12:49;24.13;;;21.50;;
3916;SDS011;1973;50.518;7.318;2022-08-19T08:15:35;23.03;;;20.60;;
3916;SDS011;1973;50.518;7.318;2022-08-19T08:18:08;23.73;;;21.23;;
3916;SDS011;1973;50.518;7.318;2022-08-19T08:20:35;22.10;;;19.77;;
3916;SDS011;1973;50.518;7.318;2022-08-19T08:23:01;22.17;;;19.83;;
3916;SDS011;1973;50.518;7.318;2022-08-19T08:25:47;21.87;;;19.80;;
3916;SDS011;1973;50.518;7.318;2022-08-19T08:28:15;20.13;;;18.37;;
3916;SDS011;1973;50.518;7.318;2022-08-19T08:30:43;24.73;;;22.20;;
3916;SDS011;1973;50.518;7.318;2022-08-19T08:33:12;20.80;;;18.80;;
3916;SDS011;1973;50.518;7.318;2022-08-19T08:35:40;21.40;;;19.10;;
3916;SDS011;1973;50.518;7.318;2022-08-19T08:38:08;19.97;;;17.90;;
3916;SDS011;1973;50.518;7.318;2022-08-19T08:40:39;19.23;;;17.33;;
3916;SDS011;1973;50.518;7.318;2022-08-19T08:43:32;19.20;;;17.50;;
3916;SDS011;1973;50.518;7.318;2022-08-19T08:46:15;17.40;;;15.63;;
3916;SDS011;1973;50.518;7.318;2022-08-19T08:51:28;17.53;;;15.97;;
3916;SDS011;1973;50.518;7.318;2022-08-19T08:54:01;18.07;;;16.30;;
3916;SDS011;1973;50.518;7.318;2022-08-19T08:56:34;16.07;;;14.57;;
3916;SDS011;1973;50.518;7.318;2022-08-19T08:59:16;14.87;;;13.40;;
3916;SDS011;1973;50.518;7.318;2022-08-19T09:01:47;16.77;;;15.10;;
3916;SDS011;1973;50.518;7.318;2022-08-19T09:04:14;16.73;;;15.10;;
3916;SDS011;1973;50.518;7.318;2022-08-19T09:10:02;13.70;;;12.40;;
3916;SDS011;1973;50.518;7.318;2022-08-19T09:15:36;17.53;;;15.60;;
3916;SDS011;1973;50.518;7.318;2022-08-19T09:18:06;15.50;;;13.87;;
3916;SDS011;1973;50.518;7.318;2022-08-19T09:20:40;18.03;;;16.17;;
3916;SDS011;1973;50.518;7.318;2022-08-19T09:23:08;15.33;;;13.90;;
3916;SDS011;1973;50.518;7.318;2022-08-19T09:25:36;18.30;;;16.70;;
3916;SDS011;1973;50.518;7.318;2022-08-19T09:28:03;19.13;;;17.13;;
3916;SDS011;1973;50.518;7.318;2022-08-19T09:30:41;18.37;;;16.23;;
3916;SDS011;1973;50.518;7.318;2022-08-19T09:33:07;16.47;;;15.00;;
3916;SDS011;1973;50.518;7.318;2022-08-19T09:35:34;17.93;;;16.03;;
3916;SDS011;1973;50.518;7.318;2022-08-19T09:38:18;16.63;;;14.30;;
3916;SDS011;1973;50.518;7.318;2022-08-19T09:40:44;16.57;;;14.87;;
3916;SDS011;1973;50.518;7.318;2022-08-19T09:43:11;18.20;;;16.50;;
3916;SDS011;1973;50.518;7.318;2022-08-19T09:45:38;17.10;;;15.23;;
3916;SDS011;1973;50.518;7.318;2022-08-19T09:48:05;17.30;;;15.70;;
3916;SDS011;1973;50.518;7.318;2022-08-19T09:50:34;18.97;;;17.27;;
3916;SDS011;1973;50.518;7.318;2022-08-19T09:53:17;19.93;;;18.23;;
3916;SDS011;1973;50.518;7.318;2022-08-19T09:55:43;17.50;;;15.63;;
3916;SDS011;1973;50.518;7.318;2022-08-19T09:58:10;23.10;;;20.67;;
3916;SDS011;1973;50.518;7.318;2022-08-19T10:00:37;21.37;;;19.37;;
3916;SDS011;1973;50.518;7.318;2022-08-19T10:03:04;19.60;;;17.90;;
3916;SDS011;1973;50.518;7.318;2022-08-19T10:05:32;18.80;;;17.00;;
3916;SDS011;1973;50.518;7.318;2022-08-19T10:08:31;17.03;;;15.23;;
3916;SDS011;1973;50.518;7.318;2022-08-19T10:11:00;19.27;;;17.47;;
3916;SDS011;1973;50.518;7.318;2022-08-19T10:13:48;16.97;;;15.40;;
3916;SDS011;1973;50.518;7.318;2022-08-19T10:16:16;15.80;;;14.40;;
3916;SDS011;1973;50.518;7.318;2022-08-19T10:18:55;16.33;;;14.73;;
3916;SDS011;1973;50.518;7.318;2022-08-19T10:21:28;15.70;;;14.00;;
3916;SDS011;1973;50.518;7.318;2022-08-19T10:23:59;17.43;;;15.60;;
3916;SDS011;1973;50.518;7.318;2022-08-19T10:26:29;15.30;;;13.90;;
3916;SDS011;1973;50.518;7.318;2022-08-19T10:28:57;16.20;;;14.70;;
3916;SDS011;1973;50.518;7.318;2022-08-19T10:31:25;16.17;;;14.67;;
3916;SDS011;1973;50.518;7.318;2022-08-19T10:34:13;15.10;;;13.60;;
3916;SDS011;1973;50.518;7.318;2022-08-19T10:36:53;16.57;;;15.07;;
3916;SDS011;1973;50.518;7.318;2022-08-19T10:39:25;16.40;;;14.90;;
3916;SDS011;1973;50.518;7.318;2022-08-19T10:41:56;17.20;;;15.47;;
3916;SDS011;1973;50.518;7.318;2022-08-19T10:44:22;16.37;;;14.77;;
3916;SDS011;1973;50.518;7.318;2022-08-19T10:46:57;17.83;;;16.27;;
3916;SDS011;1973;50.518;7.318;2022-08-19T10:49:25;19.00;;;17.03;;
3916;SDS011;1973;50.518;7.318;2022-08-19T10:51:53;17.30;;;15.60;;
3916;SDS011;1973;50.518;7.318;2022-08-19T10:54:45;16.57;;;14.87;;
3916;SDS011;1973;50.518;7.318;2022-08-19T10:57:33;17.10;;;15.50;;
3916;SDS011;1973;50.518;7.318;2022-08-19T11:00:21;14.80;;;13.50;;
3916;SDS011;1973;50.518;7.318;2022-08-19T11:02:49;16.57;;;15.13;;
3916;SDS011;1973;50.518;7.318;2022-08-19T11:05:17;18.07;;;16.33;;
3916;SDS011;1973;50.518;7.318;2022-08-19T11:07:44;17.80;;;16.23;;
3916;SDS011;1973;50.518;7.318;2022-08-19T11:10:12;18.33;;;16.70;;
3916;SDS011;1973;50.518;7.318;2022-08-19T11:12:46;16.90;;;15.47;;
3916;SDS011;1973;50.518;7.318;2022-08-19T11:15:13;17.03;;;15.23;;
3916;SDS011;1973;50.518;7.318;2022-08-19T11:17:39;17.20;;;15.13;;
3916;SDS011;1973;50.518;7.318;2022-08-19T11:20:10;16.63;;;15.23;;
3916;SDS011;1973;50.518;7.318;2022-08-19T11:22:38;14.87;;;13.50;;
3916;SDS011;1973;50.518;7.318;2022-08-19T11:25:07;15.13;;;13.80;;
3916;SDS011;1973;50.518;7.318;2022-08-19T11:27:39;15.57;;;14.27;;
3916;SDS011;1973;50.518;7.318;2022-08-19T11:30:11;28.60;;;25.97;;
3916;SDS011;1973;50.518;7.318;2022-08-19T11:32:39;17.57;;;15.97;;
3916;SDS011;1973;50.518;7.318;2022-08-19T11:35:14;15.00;;;13.80;;
3916;SDS011;1973;50.518;7.318;2022-08-19T11:37:41;15.97;;;14.67;;
3916;SDS011;1973;50.518;7.318;2022-08-19T11:40:08;14.77;;;13.23;;
3916;SDS011;1973;50.518;7.318;2022-08-19T11:42:35;16.10;;;14.80;;
3916;SDS011;1973;50.518;7.318;2022-08-19T11:45:20;14.10;;;12.77;;
3916;SDS011;1973;50.518;7.318;2022-08-19T11:47:47;12.93;;;11.77;;
3916;SDS011;1973;50.518;7.318;2022-08-19T11:50:15;13.83;;;12.43;;
3916;SDS011;1973;50.518;7.318;2022-08-19T11:52:42;12.33;;;11.33;;
3916;SDS011;1973;50.518;7.318;2022-08-19T11:55:11;14.73;;;13.53;;
3916;SDS011;1973;50.518;7.318;2022-08-19T11:57:39;11.13;;;10.23;;
3916;SDS011;1973;50.518;7.318;2022-08-19T12:00:07;13.40;;;12.27;;
3916;SDS011;1973;50.518;7.318;2022-08-19T12:02:35;13.27;;;12.27;;
3916;SDS011;1973;50.518;7.318;2022-08-19T12:05:02;15.00;;;13.60;;
3916;SDS011;1973;50.518;7.318;2022-08-19T12:07:32;17.13;;;13.73;;
3916;SDS011;1973;50.518;7.318;2022-08-19T12:10:00;14.30;;;12.93;;
3916;SDS011;1973;50.518;7.318;2022-08-19T12:12:28;13.40;;;12.30;;
3916;SDS011;1973;50.518;7.318;2022-08-19T12:14:55;13.87;;;11.10;;
3916;SDS011;1973;50.518;7.318;2022-08-19T12:17:24;9.20;;;8.40;;
3916;SDS011;1973;50.518;7.318;2022-08-19T12:19:52;12.57;;;11.37;;
3916;SDS011;1973;50.518;7.318;2022-08-19T12:22:19;11.50;;;10.50;;
3916;SDS011;1973;50.518;7.318;2022-08-19T12:24:47;12.20;;;11.17;;
3916;SDS011;1973;50.518;7.318;2022-08-19T12:27:16;11.67;;;10.80;;
3916;SDS011;1973;50.518;7.318;2022-08-19T12:30:03;10.20;;;9.40;;
3916;SDS011;1973;50.518;7.318;2022-08-19T12:32:31;9.23;;;8.47;;
3916;SDS011;1973;50.518;7.318;2022-08-19T12:34:58;10.87;;;9.77;;
3916;SDS011;1973;50.518;7.318;2022-08-19T12:37:24;10.90;;;9.90;;
3916;SDS011;1973;50.518;7.318;2022-08-19T12:39:51;9.83;;;8.93;;
3916;SDS011;1973;50.518;7.318;2022-08-19T12:42:17;9.83;;;8.93;;
3916;SDS011;1973;50.518;7.318;2022-08-19T12:44:44;12.53;;;9.63;;
3916;SDS011;1973;50.518;7.318;2022-08-19T12:47:11;9.50;;;8.70;;
3916;SDS011;1973;50.518;7.318;2022-08-19T12:49:41;8.80;;;8.10;;
3916;SDS011;1973;50.518;7.318;2022-08-19T12:52:20;9.07;;;8.33;;
3916;SDS011;1973;50.518;7.318;2022-08-19T12:54:51;9.67;;;8.87;;
3916;SDS011;1973;50.518;7.318;2022-08-19T12:57:19;8.03;;;7.43;;
3916;SDS011;1973;50.518;7.318;2022-08-19T12:59:51;9.53;;;8.70;;
3916;SDS011;1973;50.518;7.318;2022-08-19T13:02:19;9.00;;;8.20;;
3916;SDS011;1973;50.518;7.318;2022-08-19T13:04:47;10.07;;;9.07;;
3916;SDS011;1973;50.518;7.318;2022-08-19T13:07:13;10.17;;;9.27;;
3916;SDS011;1973;50.518;7.318;2022-08-19T13:09:40;9.80;;;8.90;;
3916;SDS011;1973;50.518;7.318;2022-08-19T13:12:08;9.43;;;8.73;;
3916;SDS011;1973;50.518;7.318;2022-08-19T13:14:39;11.20;;;10.00;;
3916;SDS011;1973;50.518;7.318;2022-08-19T13:17:07;10.93;;;10.07;;
3916;SDS011;1973;50.518;7.318;2022-08-19T13:19:35;10.00;;;9.20;;
3916;SDS011;1973;50.518;7.318;2022-08-19T13:22:02;10.10;;;9.30;;
3916;SDS011;1973;50.518;7.318;2022-08-19T13:24:32;11.47;;;10.37;;
3916;SDS011;1973;50.518;7.318;2022-08-19T13:27:02;12.00;;;10.90;;
3916;SDS011;1973;50.518;7.318;2022-08-19T13:29:28;11.33;;;10.53;;
3916;SDS011;1973;50.518;7.318;2022-08-19T13:32:13;12.00;;;10.90;;
3916;SDS011;1973;50.518;7.318;2022-08-19T13:34:58;11.27;;;10.27;;
3916;SDS011;1973;50.518;7.318;2022-08-19T13:37:24;11.70;;;10.70;;
3916;SDS011;1973;50.518;7.318;2022-08-19T13:40:16;12.30;;;11.30;;
3916;SDS011;1973;50.518;7.318;2022-08-19T13:42:47;11.50;;;10.60;;
3916;SDS011;1973;50.518;7.318;2022-08-19T13:45:16;11.10;;;10.20;;
3916;SDS011;1973;50.518;7.318;2022-08-19T13:47:46;10.00;;;9.20;;
3916;SDS011;1973;50.518;7.318;2022-08-19T13:50:15;13.30;;;12.10;;
3916;SDS011;1973;50.518;7.318;2022-08-19T13:52:44;12.37;;;11.30;;
3916;SDS011;1973;50.518;7.318;2022-08-19T13:55:11;11.67;;;10.70;;
3916;SDS011;1973;50.518;7.318;2022-08-19T13:57:38;11.70;;;10.43;;
3916;SDS011;1973;50.518;7.318;2022-08-19T14:00:06;14.23;;;12.90;;
3916;SDS011;1973;50.518;7.318;2022-08-19T14:02:38;12.90;;;11.80;;
3916;SDS011;1973;50.518;7.318;2022-08-19T14:05:06;14.30;;;13.10;;
3916;SDS011;1973;50.518;7.318;2022-08-19T14:07:34;15.33;;;13.90;;
3916;SDS011;1973;50.518;7.318;2022-08-19T14:10:02;13.33;;;12.33;;
3916;SDS011;1973;50.518;7.318;2022-08-19T14:12:32;14.20;;;12.90;;
3916;SDS011;1973;50.518;7.318;2022-08-19T14:14:59;16.90;;;13.10;;
3916;SDS011;1973;50.518;7.318;2022-08-19T14:17:26;13.10;;;11.73;;
3916;SDS011;1973;50.518;7.318;2022-08-19T14:19:57;12.27;;;11.17;;
3916;SDS011;1973;50.518;7.318;2022-08-19T14:22:36;13.83;;;12.73;;
3916;SDS011;1973;50.518;7.318;2022-08-19T14:25:06;12.93;;;11.93;;
3916;SDS011;1973;50.518;7.318;2022-08-19T14:27:35;12.30;;;11.40;;
3916;SDS011;1973;50.518;7.318;2022-08-19T14:30:06;11.70;;;10.60;;
3916;SDS011;1973;50.518;7.318;2022-08-19T14:32:34;12.00;;;10.97;;
3916;SDS011;1973;50.518;7.318;2022-08-19T14:35:01;13.13;;;11.93;;
3916;SDS011;1973;50.518;7.318;2022-08-19T14:37:28;10.67;;;9.60;;
3916;SDS011;1973;50.518;7.318;2022-08-19T14:39:55;10.03;;;9.13;;
3916;SDS011;1973;50.518;7.318;2022-08-19T14:42:21;9.30;;;8.60;;
3916;SDS011;1973;50.518;7.318;2022-08-19T14:44:48;9.27;;;8.57;;
3916;SDS011;1973;50.518;7.318;2022-08-19T14:47:14;9.20;;;8.40;;
3916;SDS011;1973;50.518;7.318;2022-08-19T14:49:41;9.40;;;8.50;;
3916;SDS011;1973;50.518;7.318;2022-08-19T14:52:13;10.07;;;8.17;;
3916;SDS011;1973;50.518;7.318;2022-08-19T14:54:40;8.73;;;7.20;;
3916;SDS011;1973;50.518;7.318;2022-08-19T14:57:06;8.60;;;7.90;;
3916;SDS011;1973;50.518;7.318;2022-08-19T14:59:34;8.60;;;7.70;;
3916;SDS011;1973;50.518;7.318;2022-08-19T15:02:01;8.93;;;6.43;;
3916;SDS011;1973;50.518;7.318;2022-08-19T15:04:47;7.23;;;6.40;;
3916;SDS011;1973;50.518;7.318;2022-08-19T15:07:25;8.67;;;7.87;;
3916;SDS011;1973;50.518;7.318;2022-08-19T15:09:54;9.30;;;7.80;;
3916;SDS011;1973;50.518;7.318;2022-08-19T15:12:21;8.37;;;7.67;;
3916;SDS011;1973;50.518;7.318;2022-08-19T15:14:48;9.30;;;8.27;;
3916;SDS011;1973;50.518;7.318;2022-08-19T15:17:21;8.10;;;7.40;;
3916;SDS011;1973;50.518;7.318;2022-08-19T15:20:08;8.90;;;8.10;;
3916;SDS011;1973;50.518;7.318;2022-08-19T15:22:36;9.27;;;8.37;;